Time;durP1;ratioP1;P1;durP2;ratioP2;P2;SDS_P1;SDS_P2;PMS_P1;PMS_P2;Temp;Humidity;BMP_temperature;BMP_pressure;BME280_temperature;BME280_humidity;BME280_pressure;Samples;Min_cycle;Max_cycle;Signal;HPM_P1;HPM_P2
2023/06/07 00:00:16;;;;;;;10.63;2.80;;;;;;;;;;5035730;28;20026;-75
2023/06/07 00:02:42;;;;;;;13.13;3.03;;;;;;;;;;5035741;28;20022;-75
2023/06/07 00:05:09;;;;;;;8.18;2.67;;;;;;;;;;5035587;28;20037;-75
2023/06/07 00:07:35;;;;;;;10.45;2.90;;;;;;;;;;5035638;28;20018;-75
2023/06/07 00:10:03;;;;;;;10.15;2.50;;;;;;;;;;5035363;28;20048;-75
2023/06/07 00:12:29;;;;;;;14.52;3.40;;;;;;;;;;5035288;28;20022;-75
2023/06/07 00:14:55;;;;;;;13.23;3.10;;;;;;;;;;5035174;28;20112;-75
2023/06/07 00:17:22;;;;;;;12.77;3.78;;;;;;;;;;5035144;28;20129;-75
2023/06/07 00:19:48;;;;;;;9.52;3.97;;;;;;;;;;5035642;28;20056;-75
2023/06/07 00:22:14;;;;;;;7.95;3.30;;;;;;;;;;5034522;28;20080;-75
2023/06/07 00:24:40;;;;;;;5.43;2.55;;;;;;;;;;5034939;28;20512;-75
2023/06/07 00:27:07;;;;;;;6.15;2.50;;;;;;;;;;5034639;28;20380;-75
2023/06/07 00:29:33;;;;;;;9.48;3.22;;;;;;;;;;5034963;28;20113;-75
2023/06/07 00:32:02;;;;;;;9.45;3.05;;;;;;;;;;5035161;28;20105;-75
2023/06/07 00:34:28;;;;;;;11.40;3.55;;;;;;;;;;5035047;28;20528;-75
2023/06/07 00:36:54;;;;;;;11.50;3.10;;;;;;;;;;5034854;28;20117;-75
2023/06/07 00:39:20;;;;;;;10.85;3.22;;;;;;;;;;5034730;28;20466;-75
2023/06/07 00:41:46;;;;;;;10.68;3.47;;;;;;;;;;5035002;28;20064;-75
2023/06/07 00:44:12;;;;;;;10.63;3.08;;;;;;;;;;5034668;28;20124;-75
2023/06/07 00:46:38;;;;;;;7.00;2.83;;;;;;;;;;5034604;28;20515;-75
2023/06/07 00:49:05;;;;;;;9.05;2.35;;;;;;;;;;5034571;28;20017;-75
2023/06/07 00:51:31;;;;;;;5.85;2.90;;;;;;;;;;5034580;28;20104;-75
2023/06/07 00:54:01;;;;;;;9.88;2.80;;;;;;;;;;5034500;28;20029;-75
2023/06/07 00:56:29;;;;;;;9.43;3.10;;;;;;;;;;5034132;28;20030;-75
2023/06/07 00:58:56;;;;;;;10.10;2.60;;;;;;;;;;5034760;28;20041;-75
2023/06/07 01:01:22;;;;;;;11.82;3.22;;;;;;;;;;5034350;28;20034;-75
2023/06/07 01:03:48;;;;;;;8.23;2.63;;;;;;;;;;5034073;28;20026;-75
2023/06/07 01:06:14;;;;;;;12.65;2.97;;;;;;;;;;5034051;28;20506;-75
2023/06/07 01:08:41;;;;;;;9.63;2.92;;;;;;;;;;5034217;28;20033;-75
2023/06/07 01:11:07;;;;;;;9.90;3.17;;;;;;;;;;5034392;28;20021;-75
2023/06/07 01:13:33;;;;;;;9.23;3.20;;;;;;;;;;5034205;28;20025;-75
2023/06/07 01:15:59;;;;;;;10.35;2.60;;;;;;;;;;5034242;28;20030;-75
2023/06/07 01:18:26;;;;;;;6.72;2.42;;;;;;;;;;5034082;28;20026;-75
2023/06/07 01:20:56;;;;;;;9.75;3.10;;;;;;;;;;5034000;28;20121;-75
2023/06/07 01:23:29;;;;;;;9.57;2.67;;;;;;;;;;5032628;28;20054;-75
2023/06/07 01:25:58;;;;;;;8.50;2.85;;;;;;;;;;5033841;28;20522;-75
2023/06/07 01:28:25;;;;;;;5.88;2.80;;;;;;;;;;5033719;28;20508;-75
2023/06/07 01:30:52;;;;;;;7.63;2.83;;;;;;;;;;5033162;28;20125;-75
2023/06/07 01:33:18;;;;;;;8.55;2.70;;;;;;;;;;5033740;28;20112;-75
2023/06/07 01:35:45;;;;;;;8.75;2.67;;;;;;;;;;5033614;28;20139;-75
2023/06/07 01:38:11;;;;;;;9.95;2.60;;;;;;;;;;5033663;28;20047;-75
2023/06/07 01:40:38;;;;;;;10.73;2.72;;;;;;;;;;5032902;28;20028;-75
2023/06/07 01:43:05;;;;;;;9.93;2.33;;;;;;;;;;5033526;28;20049;-75
2023/06/07 01:45:31;;;;;;;8.68;3.38;;;;;;;;;;5033399;28;20044;-75
2023/06/07 01:47:57;;;;;;;11.13;3.03;;;;;;;;;;5033172;28;20024;-75
2023/06/07 01:50:23;;;;;;;9.25;3.08;;;;;;;;;;5032829;28;20021;-75
2023/06/07 01:52:49;;;;;;;6.88;1.90;;;;;;;;;;5033351;28;20090;-75
2023/06/07 01:55:16;;;;;;;4.20;1.67;;;;;;;;;;5033189;28;20033;-75
2023/06/07 01:57:50;;;;;;;12.60;3.00;;;;;;;;;;5033278;28;20032;-75
2023/06/07 02:00:23;;;;;;;7.97;2.85;;;;;;;;;;5033507;28;20018;-75
2023/06/07 02:02:50;;;;;;;6.53;1.98;;;;;;;;;;5033221;28;20055;-75
2023/06/07 02:05:18;;;;;;;10.25;2.33;;;;;;;;;;5033128;28;20033;-75
2023/06/07 02:07:51;;;;;;;10.27;3.50;;;;;;;;;;5033274;28;20026;-75
2023/06/07 02:10:20;;;;;;;14.75;2.92;;;;;;;;;;5033268;28;20032;-75
2023/06/07 02:12:46;;;;;;;10.70;3.63;;;;;;;;;;5032979;28;20017;-75
2023/06/07 02:15:13;;;;;;;13.18;3.47;;;;;;;;;;5032936;28;20488;-75
2023/06/07 02:17:57;;;;;;;9.02;2.58;;;;;;;;;;5032924;28;20052;-75
2023/06/07 02:20:27;;;;;;;9.48;2.88;;;;;;;;;;5032862;28;20476;-75
2023/06/07 02:22:53;;;;;;;12.35;3.35;;;;;;;;;;5032598;28;20049;-75
2023/06/07 02:25:19;;;;;;;8.70;2.92;;;;;;;;;;5032784;28;20022;-75
2023/06/07 02:27:45;;;;;;;8.27;2.97;;;;;;;;;;5032314;28;20148;-75
2023/06/07 02:30:11;;;;;;;9.50;2.80;;;;;;;;;;5032825;28;20109;-75
2023/06/07 02:32:39;;;;;;;9.55;3.28;;;;;;;;;;5033002;28;20107;-75
2023/06/07 02:35:07;;;;;;;22.27;3.38;;;;;;;;;;5031279;28;20064;-75
2023/06/07 02:37:33;;;;;;;6.25;2.63;;;;;;;;;;5032645;28;20029;-75
2023/06/07 02:39:59;;;;;;;7.15;3.65;;;;;;;;;;5032768;28;20029;-75
2023/06/07 02:42:25;;;;;;;9.38;2.45;;;;;;;;;;5032879;28;20061;-75
2023/06/07 02:44:51;;;;;;;8.13;2.85;;;;;;;;;;5032566;28;20037;-75
2023/06/07 02:47:17;;;;;;;5.72;2.47;;;;;;;;;;5032440;28;20034;-75
2023/06/07 02:49:43;;;;;;;7.35;2.20;;;;;;;;;;5032582;28;20108;-75
2023/06/07 02:52:10;;;;;;;7.75;2.25;;;;;;;;;;5032400;28;20030;-75
2023/06/07 02:54:39;;;;;;;9.27;3.00;;;;;;;;;;5032411;28;20531;-75
2023/06/07 02:57:06;;;;;;;6.95;2.00;;;;;;;;;;5032957;28;20108;-75
2023/06/07 02:59:32;;;;;;;4.68;2.28;;;;;;;;;;5032376;28;20044;-75
2023/06/07 03:01:58;;;;;;;8.07;2.30;;;;;;;;;;5032562;28;20028;-75
2023/06/07 03:04:26;;;;;;;10.38;3.00;;;;;;;;;;5032199;28;20105;-75
2023/06/07 03:06:53;;;;;;;7.82;1.92;;;;;;;;;;5032652;28;20022;-75
2023/06/07 03:09:19;;;;;;;8.48;2.55;;;;;;;;;;5032479;28;20049;-75
2023/06/07 03:11:45;;;;;;;7.38;2.42;;;;;;;;;;5032303;28;20136;-75
2023/06/07 03:14:11;;;;;;;11.02;2.42;;;;;;;;;;5032179;28;20028;-75
2023/06/07 03:16:37;;;;;;;6.72;2.70;;;;;;;;;;5032162;28;20025;-75
2023/06/07 03:19:03;;;;;;;5.63;2.20;;;;;;;;;;5032129;28;20575;-75
2023/06/07 03:21:29;;;;;;;11.95;2.65;;;;;;;;;;5031430;28;20025;-75
2023/06/07 03:24:01;;;;;;;10.60;2.47;;;;;;;;;;5030450;28;20077;-75
2023/06/07 03:26:27;;;;;;;4.03;1.88;;;;;;;;;;5032036;28;20080;-75
2023/06/07 03:28:54;;;;;;;7.35;2.40;;;;;;;;;;5032230;28;20061;-75
2023/06/07 03:31:20;;;;;;;6.35;2.63;;;;;;;;;;5032288;28;20026;-75
2023/06/07 03:33:46;;;;;;;8.35;2.47;;;;;;;;;;5032107;28;20056;-75
2023/06/07 03:36:12;;;;;;;7.53;2.22;;;;;;;;;;5031923;28;20049;-75
2023/06/07 03:38:38;;;;;;;10.43;2.75;;;;;;;;;;5032014;28;20029;-75
2023/06/07 03:41:04;;;;;;;9.95;2.70;;;;;;;;;;5031982;28;20407;-75
2023/06/07 03:43:30;;;;;;;7.25;2.63;;;;;;;;;;5031601;28;20057;-75
2023/06/07 03:45:56;;;;;;;10.02;2.88;;;;;;;;;;5031829;28;20029;-75
2023/06/07 03:48:22;;;;;;;9.02;2.72;;;;;;;;;;5031679;28;20033;-75
2023/06/07 03:50:48;;;;;;;7.07;2.88;;;;;;;;;;5031695;28;20084;-75
2023/06/07 03:53:15;;;;;;;6.22;1.73;;;;;;;;;;5031933;28;20030;-75
2023/06/07 03:55:41;;;;;;;7.20;2.33;;;;;;;;;;5032009;28;20053;-75
2023/06/07 03:58:08;;;;;;;5.30;2.45;;;;;;;;;;5032105;28;20075;-75
2023/06/07 04:00:34;;;;;;;7.15;2.70;;;;;;;;;;5032045;28;20022;-75
2023/06/07 04:03:00;;;;;;;11.18;2.45;;;;;;;;;;5033026;28;20071;-75
2023/06/07 04:05:28;;;;;;;9.50;2.65;;;;;;;;;;5035276;28;20029;-75
2023/06/07 04:07:59;;;;;;;8.45;2.00;;;;;;;;;;5035653;28;20487;-75
2023/06/07 04:10:25;;;;;;;11.35;2.90;;;;;;;;;;5035169;28;20020;-75
2023/06/07 04:12:51;;;;;;;7.97;2.33;;;;;;;;;;5035241;28;20021;-75
2023/06/07 04:15:17;;;;;;;10.68;2.70;;;;;;;;;;5035236;28;20033;-75
2023/06/07 04:17:42;;;;;;;5.90;1.83;;;;;;;;;;5035228;28;20499;-75
2023/06/07 04:20:09;;;;;;;6.97;2.33;;;;;;;;;;5035079;28;20030;-75
2023/06/07 04:22:35;;;;;;;9.70;2.72;;;;;;;;;;5035026;28;20049;-76
2023/06/07 04:25:03;;;;;;;8.35;2.92;;;;;;;;;;5035738;28;20048;-75
2023/06/07 04:27:29;;;;;;;6.68;2.33;;;;;;;;;;5034984;28;20510;-75
2023/06/07 04:29:56;;;;;;;10.70;3.10;;;;;;;;;;5033692;28;20033;-75
2023/06/07 04:32:22;;;;;;;8.50;3.20;;;;;;;;;;5034685;28;20028;-75
2023/06/07 04:34:48;;;;;;;5.70;2.95;;;;;;;;;;5035163;28;20034;-75
2023/06/07 04:37:14;;;;;;;6.68;2.80;;;;;;;;;;5035201;28;20104;-75
2023/06/07 04:39:40;;;;;;;7.53;3.03;;;;;;;;;;5035151;28;20036;-75
2023/06/07 04:42:07;;;;;;;8.88;2.20;;;;;;;;;;5034967;28;20025;-75
2023/06/07 04:44:36;;;;;;;7.80;2.42;;;;;;;;;;5033493;28;20018;-75
2023/06/07 04:47:03;;;;;;;5.00;2.80;;;;;;;;;;5035086;28;20022;-75
2023/06/07 04:49:33;;;;;;;7.47;2.70;;;;;;;;;;5034526;28;20286;-75
2023/06/07 04:52:01;;;;;;;8.93;2.35;;;;;;;;;;5034840;28;20059;-76
2023/06/07 04:54:28;;;;;;;7.63;2.42;;;;;;;;;;5035149;28;20026;-75
2023/06/07 04:56:56;;;;;;;4.30;1.95;;;;;;;;;;5034946;28;20033;-75
2023/06/07 04:59:22;;;;;;;10.80;3.25;;;;;;;;;;5034795;28;20021;-75
2023/06/07 05:01:48;;;;;;;8.75;2.58;;;;;;;;;;5034776;28;20104;-75
2023/06/07 05:04:16;;;;;;;8.38;1.98;;;;;;;;;;5034661;28;20026;-75
2023/06/07 05:06:42;;;;;;;6.60;1.63;;;;;;;;;;5034600;28;20034;-75
2023/06/07 05:09:09;;;;;;;9.23;2.30;;;;;;;;;;5034300;28;20104;-75
2023/06/07 05:11:35;;;;;;;8.75;3.03;;;;;;;;;;5034325;28;20053;-75
2023/06/07 05:14:01;;;;;;;7.60;2.55;;;;;;;;;;5033427;28;20045;-75
2023/06/07 05:16:27;;;;;;;9.02;2.67;;;;;;;;;;5034070;28;20034;-75
2023/06/07 05:18:56;;;;;;;11.88;2.85;;;;;;;;;;5034619;28;20471;-75
2023/06/07 05:21:22;;;;;;;10.57;3.08;;;;;;;;;;5034338;28;20071;-75
2023/06/07 05:23:48;;;;;;;12.25;3.33;;;;;;;;;;5033132;28;20472;-75
2023/06/07 05:26:14;;;;;;;7.47;2.47;;;;;;;;;;5033862;28;20038;-75
2023/06/07 05:28:40;;;;;;;6.55;2.10;;;;;;;;;;5034245;28;20108;-75
2023/06/07 05:31:07;;;;;;;7.63;2.83;;;;;;;;;;5033920;28;20125;-75
2023/06/07 05:33:33;;;;;;;10.60;2.88;;;;;;;;;;5034135;28;20033;-75
2023/06/07 05:35:59;;;;;;;6.60;2.40;;;;;;;;;;5033811;28;20026;-75
2023/06/07 05:38:25;;;;;;;6.07;2.50;;;;;;;;;;5033825;28;20096;-75
2023/06/07 05:40:51;;;;;;;7.63;2.05;;;;;;;;;;5033715;28;20099;-75
2023/06/07 05:43:17;;;;;;;6.72;2.78;;;;;;;;;;5033579;28;20477;-76
2023/06/07 05:45:43;;;;;;;5.80;2.35;;;;;;;;;;5034010;28;20023;-75
2023/06/07 05:48:09;;;;;;;7.35;2.35;;;;;;;;;;5033596;28;20052;-75
2023/06/07 05:50:35;;;;;;;5.53;2.22;;;;;;;;;;5032401;28;20036;-75
2023/06/07 05:53:02;;;;;;;4.82;1.88;;;;;;;;;;5033301;28;20029;-75
2023/06/07 05:55:28;;;;;;;11.23;2.58;;;;;;;;;;5033746;28;20530;-75
2023/06/07 05:57:57;;;;;;;5.38;2.35;;;;;;;;;;5033856;28;20522;-75
2023/06/07 06:00:23;;;;;;;11.18;2.40;;;;;;;;;;5033580;28;20546;-75
2023/06/07 06:02:50;;;;;;;5.78;2.35;;;;;;;;;;5033836;28;20021;-75
2023/06/07 06:05:16;;;;;;;5.32;1.77;;;;;;;;;;5033677;28;20033;-74
2023/06/07 06:07:43;;;;;;;5.45;1.63;;;;;;;;;;5033355;28;20087;-75
2023/06/07 06:10:09;;;;;;;7.65;2.47;;;;;;;;;;5033259;28;20024;-74
2023/06/07 06:12:35;;;;;;;4.47;2.08;;;;;;;;;;5033467;28;20029;-74
2023/06/07 06:15:01;;;;;;;14.07;2.53;;;;;;;;;;5033077;28;20036;-75
2023/06/07 06:17:27;;;;;;;10.80;2.83;;;;;;;;;;5033182;28;20083;-75
2023/06/07 06:19:53;;;;;;;9.13;2.58;;;;;;;;;;5033206;28;20041;-75
2023/06/07 06:22:19;;;;;;;7.93;2.85;;;;;;;;;;5033055;28;20109;-75
2023/06/07 06:24:45;;;;;;;13.35;2.95;;;;;;;;;;5033589;28;20034;-75
2023/06/07 06:27:12;;;;;;;5.63;1.95;;;;;;;;;;5033283;28;20021;-75
2023/06/07 06:29:38;;;;;;;5.70;1.60;;;;;;;;;;5032958;28;20022;-75
2023/06/07 06:32:04;;;;;;;7.70;2.83;;;;;;;;;;5033518;28;20104;-76
2023/06/07 06:34:30;;;;;;;7.28;2.50;;;;;;;;;;5032605;28;20049;-73
2023/06/07 06:36:57;;;;;;;7.82;2.65;;;;;;;;;;5032853;28;20029;-73
2023/06/07 06:39:23;;;;;;;6.15;1.90;;;;;;;;;;5033123;28;20028;-73
2023/06/07 06:41:50;;;;;;;9.45;3.33;;;;;;;;;;5033003;28;20022;-74
2023/06/07 06:44:15;;;;;;;5.93;2.50;;;;;;;;;;5033027;28;20026;-74
2023/06/07 06:46:41;;;;;;;10.73;4.03;;;;;;;;;;5032685;28;20040;-73
2023/06/07 06:49:08;;;;;;;7.00;2.80;;;;;;;;;;5032604;28;20036;-75
2023/06/07 06:51:33;;;;;;;7.82;3.17;;;;;;;;;;5032920;28;20033;-73
2023/06/07 06:53:59;;;;;;;6.03;2.08;;;;;;;;;;5032602;28;20021;-73
2023/06/07 06:56:26;;;;;;;5.88;2.10;;;;;;;;;;5032048;28;20117;-74
2023/06/07 06:58:52;;;;;;;7.30;2.33;;;;;;;;;;5032395;28;20024;-75
2023/06/07 07:01:18;;;;;;;7.18;2.38;;;;;;;;;;5032184;28;20115;-74
2023/06/07 07:03:44;;;;;;;7.80;3.40;;;;;;;;;;5032418;28;20075;-74
2023/06/07 07:06:10;;;;;;;5.93;2.30;;;;;;;;;;5032223;28;20030;-74
2023/06/07 07:08:37;;;;;;;8.02;3.30;;;;;;;;;;5032342;28;20104;-74
2023/06/07 07:11:03;;;;;;;8.50;2.90;;;;;;;;;;5032241;28;20034;-73
2023/06/07 07:13:29;;;;;;;9.50;2.65;;;;;;;;;;5032065;28;20025;-73
2023/06/07 07:15:55;;;;;;;6.03;2.25;;;;;;;;;;5031868;28;20108;-73
2023/06/07 07:18:21;;;;;;;8.80;2.80;;;;;;;;;;5032475;28;20105;-73
2023/06/07 07:20:47;;;;;;;7.97;2.72;;;;;;;;;;5032273;28;20030;-73
2023/06/07 07:23:13;;;;;;;6.88;2.65;;;;;;;;;;5032038;28;20053;-73
2023/06/07 07:25:40;;;;;;;7.53;2.92;;;;;;;;;;5032004;28;20065;-73
2023/06/07 07:28:06;;;;;;;8.52;2.75;;;;;;;;;;5032384;28;20026;-73
2023/06/07 07:30:32;;;;;;;6.18;2.15;;;;;;;;;;5032086;28;20032;-73
2023/06/07 07:32:58;;;;;;;11.45;2.78;;;;;;;;;;5032168;28;20115;-73
2023/06/07 07:35:24;;;;;;;5.65;2.40;;;;;;;;;;5032127;28;20115;-73
2023/06/07 07:37:53;;;;;;;4.10;2.25;;;;;;;;;;5033231;28;20060;-73
2023/06/07 07:40:19;;;;;;;6.65;2.40;;;;;;;;;;5036221;28;20322;-73
2023/06/07 07:42:46;;;;;;;7.78;3.17;;;;;;;;;;5035674;28;20472;-74
2023/06/07 07:45:13;;;;;;;6.90;2.53;;;;;;;;;;5035640;28;20034;-73
2023/06/07 07:47:40;;;;;;;10.73;2.83;;;;;;;;;;5035901;28;20491;-74
2023/06/07 07:50:07;;;;;;;10.98;3.42;;;;;;;;;;5035471;28;20025;-74
2023/06/07 07:52:33;;;;;;;8.30;2.90;;;;;;;;;;5035780;28;20025;-74
2023/06/07 07:55:00;;;;;;;9.27;3.20;;;;;;;;;;5035357;28;20033;-74
2023/06/07 07:57:26;;;;;;;6.40;2.67;;;;;;;;;;5035305;28;20021;-74
2023/06/07 07:59:52;;;;;;;11.13;3.10;;;;;;;;;;5035213;28;20032;-74
2023/06/07 08:02:18;;;;;;;9.68;2.63;;;;;;;;;;5035176;28;20052;-74
2023/06/07 08:04:44;;;;;;;6.43;2.70;;;;;;;;;;5035138;28;20043;-74
2023/06/07 08:07:15;;;;;;;8.80;3.00;;;;;;;;;;5035043;28;20026;-74
2023/06/07 08:09:41;;;;;;;7.25;2.60;;;;;;;;;;5035313;28;20048;-74
2023/06/07 08:12:08;;;;;;;5.22;2.40;;;;;;;;;;5034740;28;20475;-74
2023/06/07 08:14:34;;;;;;;8.07;2.70;;;;;;;;;;5034903;28;20483;-74
2023/06/07 08:17:00;;;;;;;8.55;3.00;;;;;;;;;;5035120;28;20026;-74
2023/06/07 08:19:27;;;;;;;10.40;3.63;;;;;;;;;;5035011;28;20112;-74
2023/06/07 08:21:53;;;;;;;13.00;3.75;;;;;;;;;;5035335;28;20076;-74
2023/06/07 08:24:19;;;;;;;7.25;3.25;;;;;;;;;;5033665;28;20103;-74
2023/06/07 08:26:45;;;;;;;9.25;3.47;;;;;;;;;;5035029;28;20033;-74
2023/06/07 08:29:12;;;;;;;8.98;3.15;;;;;;;;;;5035136;28;20122;-74
2023/06/07 08:31:41;;;;;;;9.25;3.15;;;;;;;;;;5034734;28;20021;-74
2023/06/07 08:34:07;;;;;;;5.05;3.05;;;;;;;;;;5033534;28;20022;-75
2023/06/07 08:36:33;;;;;;;10.13;3.60;;;;;;;;;;5035195;28;20034;-74
2023/06/07 08:38:59;;;;;;;5.57;3.30;;;;;;;;;;5035080;28;20033;-75
2023/06/07 08:41:27;;;;;;;9.52;3.47;;;;;;;;;;5033422;28;20025;-75
2023/06/07 08:43:53;;;;;;;5.20;3.10;;;;;;;;;;5034725;28;20037;-74
2023/06/07 08:46:20;;;;;;;8.95;3.28;;;;;;;;;;5034580;28;20039;-74
2023/06/07 08:48:49;;;;;;;11.30;3.63;;;;;;;;;;5033190;28;20021;-74
2023/06/07 08:51:17;;;;;;;7.03;4.03;;;;;;;;;;5034759;28;20025;-74
2023/06/07 08:53:56;;;;;;;11.30;4.70;;;;;;;;;;5034433;28;20255;-75
2023/06/07 08:56:23;;;;;;;8.05;3.83;;;;;;;;;;5034370;28;20056;-75
2023/06/07 08:58:49;;;;;;;8.73;3.72;;;;;;;;;;5034690;28;20028;-75
2023/06/07 09:01:16;;;;;;;11.73;3.72;;;;;;;;;;5034462;28;20021;-75
2023/06/07 09:03:42;;;;;;;11.07;4.55;;;;;;;;;;5034567;28;20021;-74
2023/06/07 09:06:08;;;;;;;6.55;4.05;;;;;;;;;;5034075;28;20073;-75
2023/06/07 09:08:35;;;;;;;9.02;3.97;;;;;;;;;;5034251;28;20053;-75
2023/06/07 09:11:01;;;;;;;9.55;3.70;;;;;;;;;;5034815;28;20025;-74
2023/06/07 09:13:28;;;;;;;10.27;4.50;;;;;;;;;;5033797;28;20420;-73
2023/06/07 09:16:00;;;;;;;8.88;4.35;;;;;;;;;;5033859;28;20041;-73
2023/06/07 09:18:45;;;;;;;8.57;3.60;;;;;;;;;;5033838;28;20029;-73
2023/06/07 09:21:21;;;;;;;4.97;2.78;;;;;;;;;;5033160;28;20021;-75
2023/06/07 09:23:48;;;;;;;8.40;3.78;;;;;;;;;;5032112;28;20053;-75
2023/06/07 09:26:14;;;;;;;9.52;3.80;;;;;;;;;;5033111;28;20064;-75
2023/06/07 09:28:40;;;;;;;8.90;3.83;;;;;;;;;;5033961;28;20376;-75
2023/06/07 09:31:07;;;;;;;8.50;3.00;;;;;;;;;;5048990;28;20025;-75
2023/06/07 09:33:33;;;;;;;7.68;3.25;;;;;;;;;;5033860;28;20017;-75
2023/06/07 09:36:07;;;;;;;5.80;3.10;;;;;;;;;;5033653;28;20087;-75
2023/06/07 09:38:33;;;;;;;7.28;3.85;;;;;;;;;;5033645;28;20461;-75
2023/06/07 09:41:00;;;;;;;7.70;3.80;;;;;;;;;;5048813;28;20032;-75
2023/06/07 09:43:26;;;;;;;8.70;3.30;;;;;;;;;;5032677;28;20108;-76
2023/06/07 09:45:54;;;;;;;6.72;3.65;;;;;;;;;;5033296;28;20389;-75
2023/06/07 09:48:20;;;;;;;8.18;3.47;;;;;;;;;;5033982;28;20036;-75
2023/06/07 09:50:55;;;;;;;7.38;3.65;;;;;;;;;;5033546;28;20056;-75
2023/06/07 09:53:21;;;;;;;6.13;3.90;;;;;;;;;;5033935;28;20034;-75
2023/06/07 09:55:47;;;;;;;8.45;3.97;;;;;;;;;;5033653;28;20025;-75
2023/06/07 09:58:19;;;;;;;8.77;3.65;;;;;;;;;;5033251;28;20029;-75
2023/06/07 10:00:46;;;;;;;10.13;4.20;;;;;;;;;;5032669;28;20040;-75
2023/06/07 10:03:13;;;;;;;7.13;3.42;;;;;;;;;;5033217;28;20372;-76
2023/06/07 10:05:41;;;;;;;6.00;2.72;;;;;;;;;;5033304;28;20076;-75
2023/06/07 10:08:07;;;;;;;9.38;3.92;;;;;;;;;;5033679;28;20014;-76
2023/06/07 10:10:34;;;;;;;8.02;3.70;;;;;;;;;;5035347;28;20067;-75
2023/06/07 10:13:04;;;;;;;11.98;3.60;;;;;;;;;;5034129;28;20041;-75
2023/06/07 10:15:31;;;;;;;8.82;3.88;;;;;;;;;;5033675;28;20029;-76
2023/06/07 10:18:01;;;;;;;6.28;3.15;;;;;;;;;;5032868;28;20368;-75
2023/06/07 10:20:31;;;;;;;8.70;3.72;;;;;;;;;;5032128;28;20471;-75
2023/06/07 10:23:03;;;;;;;8.27;4.40;;;;;;;;;;5031246;28;20057;-75
2023/06/07 10:25:34;;;;;;;11.50;4.07;;;;;;;;;;5032792;28;20033;-75
2023/06/07 10:28:04;;;;;;;9.43;4.65;;;;;;;;;;5032651;28;20022;-76
2023/06/07 10:30:31;;;;;;;7.32;3.78;;;;;;;;;;5033126;28;20053;-75
2023/06/07 10:32:58;;;;;;;8.43;4.05;;;;;;;;;;5032633;28;20136;-75
2023/06/07 10:35:25;;;;;;;9.43;4.90;;;;;;;;;;5032959;28;20036;-75
2023/06/07 10:37:53;;;;;;;8.90;4.63;;;;;;;;;;5032639;28;20112;-75
2023/06/07 10:40:19;;;;;;;7.53;3.40;;;;;;;;;;5033004;28;20021;-75
2023/06/07 10:42:46;;;;;;;8.18;3.95;;;;;;;;;;5031055;28;20053;-75
2023/06/07 10:45:16;;;;;;;10.30;4.80;;;;;;;;;;5032522;28;20029;-75
2023/06/07 10:47:42;;;;;;;8.50;4.00;;;;;;;;;;5032589;28;20025;-75
2023/06/07 10:50:09;;;;;;;8.02;3.88;;;;;;;;;;5032466;28;20025;-75
2023/06/07 10:52:53;;;;;;;9.48;5.20;;;;;;;;;;5032537;28;20060;-75
2023/06/07 10:55:27;;;;;;;9.18;4.88;;;;;;;;;;5032322;28;20487;-75
2023/06/07 10:57:53;;;;;;;8.07;3.42;;;;;;;;;;5032340;28;20059;-75
2023/06/07 11:00:26;;;;;;;9.27;4.75;;;;;;;;;;5032419;28;20514;-75
2023/06/07 11:03:16;;;;;;;12.55;4.00;;;;;;;;;;5032688;28;20083;-75
2023/06/07 11:05:54;;;;;;;8.73;4.28;;;;;;;;;;5032630;28;20413;-75
2023/06/07 11:08:23;;;;;;;11.60;3.70;;;;;;;;;;5032161;28;20498;-75
2023/06/07 11:10:49;;;;;;;10.10;5.53;;;;;;;;;;5032301;28;20423;-75
2023/06/07 11:13:15;;;;;;;10.60;4.70;;;;;;;;;;5034153;28;20448;-75
2023/06/07 11:15:41;;;;;;;10.73;4.55;;;;;;;;;;5036850;28;20072;-76
2023/06/07 11:18:08;;;;;;;11.50;4.72;;;;;;;;;;5036863;28;20052;-76
2023/06/07 11:20:37;;;;;;;8.82;4.07;;;;;;;;;;5036680;28;20018;-75
2023/06/07 11:23:21;;;;;;;6.53;2.60;;;;;;;;;;5035386;28;20382;-75
2023/06/07 11:25:48;;;;;;;7.13;4.18;;;;;;;;;;5036082;28;20099;-75
2023/06/07 11:28:16;;;;;;;11.23;5.53;;;;;;;;;;5036172;28;20029;-75
2023/06/07 11:30:45;;;;;;;7.63;4.13;;;;;;;;;;5036529;28;20024;-75
2023/06/07 11:33:18;;;;;;;7.15;3.63;;;;;;;;;;5036582;28;20028;-75
2023/06/07 11:35:44;;;;;;;9.52;4.35;;;;;;;;;;5036217;28;20100;-76
2023/06/07 11:38:10;;;;;;;14.00;4.32;;;;;;;;;;5036379;28;20021;-75
2023/06/07 11:40:36;;;;;;;10.57;4.15;;;;;;;;;;5035896;28;20480;-76
2023/06/07 11:43:03;;;;;;;8.15;4.20;;;;;;;;;;5035935;28;20025;-76
2023/06/07 11:45:32;;;;;;;8.50;4.28;;;;;;;;;;5035814;28;20468;-75
2023/06/07 11:48:01;;;;;;;7.07;4.07;;;;;;;;;;5036642;28;20013;-75
2023/06/07 11:50:27;;;;;;;9.77;4.07;;;;;;;;;;5037501;28;20053;-75
2023/06/07 11:52:53;;;;;;;6.22;3.03;;;;;;;;;;5037198;28;20022;-76
2023/06/07 11:55:20;;;;;;;11.85;5.18;;;;;;;;;;5036948;28;20064;-76
2023/06/07 11:57:51;;;;;;;10.55;4.53;;;;;;;;;;5041328;28;20055;-75
2023/06/07 12:00:20;;;;;;;12.82;4.65;;;;;;;;;;5036345;28;20103;-75
2023/06/07 12:02:46;;;;;;;7.80;3.92;;;;;;;;;;5039392;28;20026;-75
2023/06/07 12:05:13;;;;;;;8.13;4.05;;;;;;;;;;5036535;28;20044;-76
2023/06/07 12:07:40;;;;;;;11.77;4.15;;;;;;;;;;5036531;28;20037;-76
2023/06/07 12:10:06;;;;;;;5.68;2.92;;;;;;;;;;5034535;28;20025;-76
2023/06/07 12:12:32;;;;;;;10.43;2.78;;;;;;;;;;5034539;28;20044;-76
2023/06/07 12:15:02;;;;;;;7.97;3.90;;;;;;;;;;5035570;28;20481;-76
2023/06/07 12:17:34;;;;;;;8.02;3.97;;;;;;;;;;5035550;28;20021;-76
2023/06/07 12:20:14;;;;;;;6.57;3.40;;;;;;;;;;5036418;28;20025;-76
2023/06/07 12:22:40;;;;;;;12.73;4.75;;;;;;;;;;5035434;28;20028;-76
2023/06/07 12:25:15;;;;;;;12.18;4.10;;;;;;;;;;5036620;28;20041;-75
2023/06/07 12:27:45;;;;;;;11.20;4.20;;;;;;;;;;5036892;28;20490;-75
2023/06/07 12:30:12;;;;;;;9.38;3.60;;;;;;;;;;5035685;28;20640;-75
2023/06/07 12:32:38;;;;;;;9.27;3.80;;;;;;;;;;5037693;28;20404;-75
2023/06/07 12:35:07;;;;;;;8.43;4.25;;;;;;;;;;5035047;28;20030;-75
2023/06/07 12:37:37;;;;;;;8.00;3.70;;;;;;;;;;5033721;28;20017;-76
2023/06/07 12:40:04;;;;;;;8.38;3.90;;;;;;;;;;5034962;28;20026;-76
2023/06/07 12:42:31;;;;;;;9.43;3.78;;;;;;;;;;5035165;28;20018;-76
2023/06/07 12:44:57;;;;;;;7.82;3.63;;;;;;;;;;5034508;28;20029;-76
2023/06/07 12:47:23;;;;;;;8.95;3.58;;;;;;;;;;5034801;28;20021;-76
2023/06/07 12:49:49;;;;;;;10.10;3.35;;;;;;;;;;5033856;28;20043;-75
2023/06/07 12:52:16;;;;;;;10.63;4.18;;;;;;;;;;5031870;28;20034;-75
2023/06/07 12:54:42;;;;;;;7.68;3.80;;;;;;;;;;5031296;28;20033;-75
2023/06/07 12:57:08;;;;;;;11.18;3.40;;;;;;;;;;5034082;28;20633;-75
2023/06/07 12:59:34;;;;;;;8.65;3.55;;;;;;;;;;5033712;28;20026;-75
2023/06/07 13:02:00;;;;;;;5.95;3.42;;;;;;;;;;5035401;28;20033;-75
2023/06/07 13:04:26;;;;;;;10.40;3.55;;;;;;;;;;5033131;28;20460;-75
2023/06/07 13:06:52;;;;;;;9.27;3.88;;;;;;;;;;5033289;28;20037;-75
2023/06/07 13:09:19;;;;;;;9.25;3.83;;;;;;;;;;5033780;28;20025;-75
2023/06/07 13:11:45;;;;;;;4.85;2.65;;;;;;;;;;5033877;28;20025;-75
2023/06/07 13:14:11;;;;;;;6.50;3.95;;;;;;;;;;5034356;28;20108;-76
2023/06/07 13:16:37;;;;;;;9.23;3.65;;;;;;;;;;5034268;28;20516;-75
2023/06/07 13:19:04;;;;;;;7.43;4.22;;;;;;;;;;5034043;28;20045;-75
2023/06/07 13:21:30;;;;;;;7.45;3.42;;;;;;;;;;5034087;28;20460;-75
2023/06/07 13:23:56;;;;;;;7.65;3.25;;;;;;;;;;5033651;28;20053;-75
2023/06/07 13:26:22;;;;;;;6.00;3.55;;;;;;;;;;5033968;28;20047;-75
2023/06/07 13:28:49;;;;;;;7.57;4.07;;;;;;;;;;5034337;28;20081;-75
2023/06/07 13:31:15;;;;;;;12.80;4.45;;;;;;;;;;5033956;28;20093;-75
2023/06/07 13:33:42;;;;;;;8.48;3.78;;;;;;;;;;5034011;28;20037;-74
2023/06/07 13:36:08;;;;;;;8.38;4.15;;;;;;;;;;5033605;28;20562;-75
2023/06/07 13:38:34;;;;;;;10.32;4.50;;;;;;;;;;5034075;28;20053;-75
2023/06/07 13:41:00;;;;;;;4.75;3.33;;;;;;;;;;5033726;28;20021;-75
2023/06/07 13:43:27;;;;;;;7.65;3.38;;;;;;;;;;5033498;28;20033;-75
2023/06/07 13:45:53;;;;;;;9.02;3.50;;;;;;;;;;5033343;28;20423;-75
2023/06/07 13:48:22;;;;;;;10.73;4.57;;;;;;;;;;5033609;28;20022;-75
2023/06/07 13:50:51;;;;;;;9.85;5.07;;;;;;;;;;5033519;28;20420;-75
2023/06/07 13:53:18;;;;;;;8.13;4.43;;;;;;;;;;5033596;28;20116;-75
2023/06/07 13:55:47;;;;;;;11.05;5.13;;;;;;;;;;5033533;28;20026;-75
2023/06/07 13:58:16;;;;;;;7.28;3.58;;;;;;;;;;5033972;28;20026;-75
2023/06/07 14:00:42;;;;;;;10.07;4.60;;;;;;;;;;5032892;28;20028;-75
2023/06/07 14:03:09;;;;;;;6.10;3.30;;;;;;;;;;5032577;28;20021;-75
2023/06/07 14:05:35;;;;;;;11.80;4.60;;;;;;;;;;5031986;28;20481;-75
2023/06/07 14:08:01;;;;;;;11.52;4.55;;;;;;;;;;5031795;28;20025;-75
2023/06/07 14:10:28;;;;;;;8.75;3.95;;;;;;;;;;5031828;28;20088;-75
2023/06/07 14:12:57;;;;;;;8.15;4.40;;;;;;;;;;5032228;28;20025;-75
2023/06/07 14:15:23;;;;;;;11.43;4.27;;;;;;;;;;5032999;28;20036;-75
2023/06/07 14:17:49;;;;;;;9.27;4.32;;;;;;;;;;5032934;28;20475;-75
2023/06/07 14:20:15;;;;;;;11.88;4.88;;;;;;;;;;5032902;28;20030;-75
2023/06/07 14:22:41;;;;;;;11.30;5.05;;;;;;;;;;5032916;28;20112;-75
2023/06/07 14:25:07;;;;;;;7.38;4.13;;;;;;;;;;5031516;28;20046;-75
2023/06/07 14:27:33;;;;;;;8.60;4.20;;;;;;;;;;5033523;28;20022;-75
2023/06/07 14:29:59;;;;;;;12.95;5.18;;;;;;;;;;5032797;28;20072;-75
2023/06/07 14:32:25;;;;;;;6.75;3.90;;;;;;;;;;5032715;28;20036;-75
2023/06/07 14:34:51;;;;;;;7.38;4.38;;;;;;;;;;5032673;28;20033;-75
2023/06/07 14:37:17;;;;;;;9.27;3.40;;;;;;;;;;5032733;28;20032;-75
2023/06/07 14:39:43;;;;;;;6.88;3.17;;;;;;;;;;5032897;28;20356;-75